Orchard, CO (80649)

11:51 AM MST on February 13, 2016 (GMT -0700)
Fort Morgan | | Change Station
CLOSE
Current Station
Airport
Location: Fort Morgan,
Elevation: 4570 ft
Nearby Weather Stations

Elev 4570 ft 40.33 °N, 103.80 °W | Updated 16 minutes ago

Fog
Fog
32 °F
Feels Like 26 °F
N
6
Wind Variable Wind from WSW

Today
High -- | Low -- °F
--% Chance of Precip.
Yesterday
High -- | Low -- °F
Precip. -- in
Pressure 30.03 in
Visibility 0.2 miles
Clouds Overcast 100 ft
Windchill 26 °F
Dew Point 31 °F
Humidity 97%
Rainfall 0.00 in
Snow Depth Not available.
6:52 AM 5:28 PM
Waxing Crescent, 33% visible
METAR KFMM 131835Z AUTO 24005KT 1/4SM FG OVC001 00/00 A3003 RMK AO2 T10011005
Pressure 30.03 in
Visibility 0.2 miles
Clouds Overcast 100 ft
Windchill 26 °F
Dew Point 31 °F
Humidity 97%
Rainfall 0.00 in
Snow Depth Not available.
6:52 AM 5:28 PM
Waxing Crescent, 33% visible
METAR KFMM 131835Z AUTO 24005KT 1/4SM FG OVC001 00/00 A3003 RMK AO2 T10011005

10-Day Weather Forecast

Almanac

Astronomy

Feb. 13, 2016 Rise Set
Actual Time
Civil Twilight
Nautical Twilight
Astronomical Twilight
Moon
Length of Visible Light
Length of Day
Tomorrow will be .
, % of the Moon is Illuminated

Today's Extremes

State Highs State Lows

Community

WunderPhotos

Upload Photos

1,892,633 photos uploaded!

WunderBlog® & News

Nearby

Air Quality

  Air Quality AQ Index Pollutant
Not available.

Snow Depth

Station Depth Elevation

Earthquake Activity

City Distance Mag. Time & Date
Minimum magnitude displayed is 2.5.

Coastal Water Temperatures

Place Temperature

Stations

Nearby Weather Stations

Station Location Temp. Windchill Dew Point Humidity Wind Precip. Elev Updated Type
                   

Watches & Warnings

There are currently no watches in effect.